createdAt,value
2018-06-23T00:00:37.534Z,39.87
2018-06-23T00:01:37.455Z,39.19
2018-06-23T00:02:37.381Z,39.67
2018-06-23T00:03:37.303Z,37.95
2018-06-23T00:04:37.229Z,36.53
2018-06-23T00:05:37.150Z,37.21
2018-06-23T00:06:37.074Z,37.86
2018-06-23T00:07:36.998Z,37.95
2018-06-23T00:08:36.921Z,39.87
2018-06-23T00:09:36.844Z,36.74
2018-06-23T00:10:36.768Z,40.35
2018-06-23T00:11:36.693Z,43.02
2018-06-23T00:12:36.617Z,46.54
2018-06-23T00:13:36.540Z,45.49
2018-06-23T00:14:36.465Z,42.92
2018-06-23T00:15:36.388Z,42.25
2018-06-23T00:16:36.313Z,40.45
2018-06-23T00:17:36.236Z,41.02
2018-06-23T00:18:36.161Z,41.11
2018-06-23T00:19:36.084Z,40.64
2018-06-23T00:20:36.011Z,40.62
2018-06-23T00:21:35.931Z,38.53
2018-06-23T00:22:35.855Z,38.53
2018-06-23T00:23:35.778Z,38.34
2018-06-23T00:24:35.704Z,37.69
2018-06-23T00:25:35.626Z,36.81
2018-06-23T00:26:35.553Z,34.63
2018-06-23T00:27:35.474Z,31.69
2018-06-23T00:28:35.401Z,35.40
2018-06-23T00:29:35.321Z,38.83
2018-06-23T00:30:35.245Z,44.64
2018-06-23T00:31:35.168Z,41.02
2018-06-23T00:32:35.093Z,41.30
2018-06-23T00:33:35.016Z,40.92
2018-06-23T00:34:34.940Z,43.87
2018-06-23T00:35:34.865Z,47.87
2018-06-23T00:36:34.789Z,46.54
2018-06-23T00:37:34.711Z,45.37
2018-06-23T00:38:34.635Z,44.13
2018-06-23T00:39:34.559Z,45.09
2018-06-23T00:40:34.484Z,44.33
2018-06-23T00:41:34.406Z,44.13
2018-06-23T00:42:34.329Z,41.95
2018-06-23T00:43:34.255Z,39.09
2018-06-23T00:44:34.178Z,42.99
2018-06-23T00:45:34.101Z,43.38
2018-06-23T00:46:34.025Z,40.62
2018-06-23T00:47:33.949Z,39.19
2018-06-23T00:48:33.872Z,38.62
2018-06-23T00:49:33.798Z,38.24
2018-06-23T00:50:33.721Z,36.62
2018-06-23T00:51:33.648Z,38.90
2018-06-23T00:52:33.574Z,40.52
2018-06-23T00:53:33.491Z,37.00
2018-06-23T00:54:33.416Z,38.34
2018-06-23T00:55:33.340Z,39.38
2018-06-23T00:56:33.264Z,42.52
2018-06-23T00:57:33.188Z,42.24
2018-06-23T00:58:33.110Z,39.28
2018-06-23T00:59:33.036Z,39.86
2018-06-23T01:00:32.964Z,39.67
2018-06-23T01:01:32.880Z,40.90
2018-06-23T01:02:32.805Z,35.19
2018-06-23T01:03:32.730Z,30.82
2018-06-23T01:04:32.653Z,30.91
2018-06-23T01:05:32.576Z,41.09
2018-06-23T01:06:32.500Z,41.85
2018-06-23T01:07:32.424Z,38.05
2018-06-23T01:08:32.348Z,38.34
2018-06-23T01:09:32.271Z,36.33
2018-06-23T01:10:32.198Z,31.58
2018-06-23T01:11:32.119Z,37.10
2018-06-23T01:12:32.043Z,39.28
2018-06-23T01:13:31.965Z,41.19
2018-06-23T01:14:31.889Z,36.24
2018-06-23T01:15:31.814Z,38.81
2018-06-23T01:16:31.737Z,41.85
2018-06-23T01:17:31.660Z,39.67
2018-06-23T01:18:31.583Z,37.86
2018-06-23T01:19:31.507Z,38.05
2018-06-23T01:20:31.432Z,35.96
2018-06-23T01:21:31.355Z,35.58
2018-06-23T01:22:31.280Z,33.56
2018-06-23T01:23:31.203Z,31.39
2018-06-23T01:24:39.392Z,35.27
2018-06-23T01:25:31.052Z,34.89
2018-06-23T01:26:30.974Z,35.10
2018-06-23T01:27:30.896Z,33.18
2018-06-23T01:28:30.820Z,32.04
2018-06-23T01:29:30.749Z,29.09
2018-06-23T01:30:30.666Z,29.66
2018-06-23T01:31:30.590Z,32.04
2018-06-23T01:32:30.514Z,33.37
2018-06-23T01:33:30.437Z,34.63
2018-06-23T01:34:30.360Z,35.65
2018-06-23T01:35:30.284Z,32.99
2018-06-23T01:36:30.210Z,28.92
2018-06-23T01:37:30.130Z,27.87
2018-06-23T01:38:30.054Z,38.12
2018-06-23T01:39:29.976Z,35.65
2018-06-23T01:40:29.902Z,31.76
2018-06-23T01:41:29.822Z,28.14
2018-06-23T01:42:29.747Z,29.00
2018-06-23T01:43:29.670Z,30.52
2018-06-23T01:44:29.595Z,29.95
2018-06-23T01:45:29.517Z,32.23
2018-06-23T01:46:29.441Z,32.42
2018-06-23T01:47:29.365Z,33.65
2018-06-23T01:48:29.288Z,33.18
2018-06-23T01:49:29.210Z,32.04
2018-06-23T01:50:29.133Z,31.56
2018-06-23T01:51:29.057Z,30.33
2018-06-23T01:52:28.984Z,28.90
2018-06-23T01:53:28.904Z,27.38
2018-06-23T01:54:28.828Z,29.75
2018-06-23T01:55:28.750Z,30.33
2018-06-23T01:56:28.675Z,28.90
2018-06-23T01:57:28.597Z,26.43
2018-06-23T01:58:28.520Z,26.05
2018-06-23T01:59:28.444Z,27.86
2018-06-23T02:00:28.369Z,28.52
2018-06-23T02:01:28.290Z,25.01
2018-06-23T02:02:28.214Z,25.38
2018-06-23T02:03:28.136Z,25.38
2018-06-23T02:04:28.060Z,25.20
2018-06-23T02:05:27.982Z,25.86
2018-06-23T02:06:27.905Z,25.57
2018-06-23T02:07:27.828Z,25.48
2018-06-23T02:08:27.752Z,24.81
2018-06-23T02:09:27.675Z,23.48
2018-06-23T02:10:27.598Z,23.39
2018-06-23T02:11:27.521Z,23.67
2018-06-23T02:12:27.446Z,25.86
2018-06-23T02:13:27.367Z,25.65
2018-06-23T02:14:27.290Z,25.01
2018-06-23T02:15:27.215Z,24.34
2018-06-23T02:16:27.138Z,24.04
2018-06-23T02:17:27.059Z,25.37
2018-06-23T02:18:26.982Z,21.47
2018-06-23T02:19:26.905Z,21.38
2018-06-23T02:20:26.829Z,22.24
2018-06-23T02:21:26.750Z,24.99
2018-06-23T02:22:26.674Z,23.66
2018-06-23T02:23:26.597Z,24.33
2018-06-23T02:24:26.523Z,23.19
2018-06-23T02:25:26.442Z,20.90
2018-06-23T02:26:26.365Z,18.43
2018-06-23T02:27:26.287Z,19.95
2018-06-23T02:28:26.212Z,20.90
2018-06-23T02:29:26.134Z,22.71
2018-06-23T02:30:26.057Z,25.46
2018-06-23T02:31:25.980Z,25.09
2018-06-23T02:32:25.903Z,26.13
2018-06-23T02:33:25.826Z,27.27
2018-06-23T02:34:25.748Z,26.32
2018-06-23T02:35:25.675Z,24.90
2018-06-23T02:36:25.596Z,21.95
2018-06-23T02:37:25.516Z,17.39
2018-06-23T02:38:25.590Z,24.61
2018-06-23T02:39:25.363Z,23.38
2018-06-23T02:40:25.285Z,24.33
2018-06-23T02:41:25.211Z,27.18
2018-06-23T02:42:25.130Z,28.13
2018-06-23T02:43:25.054Z,27.75
2018-06-23T02:44:24.978Z,24.33
2018-06-23T02:45:24.898Z,23.85
2018-06-23T02:46:24.822Z,21.86
2018-06-23T02:47:24.745Z,22.14
2018-06-23T02:48:24.669Z,22.42
2018-06-23T02:49:24.593Z,21.47
2018-06-23T02:50:24.513Z,23.38
2018-06-23T02:51:24.435Z,22.90
2018-06-23T02:52:24.361Z,22.24
2018-06-23T02:53:24.280Z,22.05
2018-06-23T02:54:24.202Z,20.14
2018-06-23T02:55:24.126Z,20.90
2018-06-23T02:56:24.049Z,22.52
2018-06-23T02:57:23.972Z,22.14
2018-06-23T02:58:23.894Z,19.10
2018-06-23T02:59:23.818Z,18.24
2018-06-23T03:00:23.741Z,17.58
2018-06-23T03:01:23.662Z,18.43
2018-06-23T03:02:23.585Z,19.29
2018-06-23T03:03:23.507Z,17.77
2018-06-23T03:04:23.431Z,19.10
2018-06-23T03:05:23.351Z,21.19
2018-06-23T03:06:23.275Z,21.47
2018-06-23T03:07:23.197Z,20.34
2018-06-23T03:08:23.120Z,19.20
2018-06-23T03:09:23.043Z,18.15
2018-06-23T03:10:22.965Z,16.82
2018-06-23T03:11:22.889Z,16.15
2018-06-23T03:12:22.811Z,16.91
2018-06-23T03:13:22.733Z,18.24
2018-06-23T03:14:22.805Z,18.81
2018-06-23T03:15:22.584Z,18.24
2018-06-23T03:16:22.504Z,17.58
2018-06-23T03:17:22.423Z,16.44
2018-06-23T03:18:22.346Z,16.06
2018-06-23T03:19:22.271Z,14.35
2018-06-23T03:20:22.192Z,19.76
2018-06-23T03:21:22.114Z,22.90
2018-06-23T03:22:22.037Z,21.47
2018-06-23T03:23:21.958Z,21.38
2018-06-23T03:24:21.881Z,18.15
2018-06-23T03:25:21.805Z,16.91
2018-06-23T03:26:21.727Z,13.49
2018-06-23T03:27:21.653Z,12.54
2018-06-23T03:28:21.572Z,15.96
2018-06-23T03:29:21.495Z,15.96
2018-06-23T03:30:21.424Z,13.40
2018-06-23T03:31:21.341Z,13.30
2018-06-23T03:32:21.263Z,9.97
2018-06-23T03:33:21.185Z,10.07
2018-06-23T03:34:21.108Z,14.44
2018-06-23T03:35:21.031Z,13.78
2018-06-23T03:36:20.963Z,13.11
2018-06-23T03:37:20.876Z,14.54
2018-06-23T03:38:20.800Z,13.40
2018-06-23T03:39:20.726Z,12.35
2018-06-23T03:40:20.644Z,13.87
2018-06-23T03:41:20.565Z,13.21
2018-06-23T03:42:20.489Z,12.07
2018-06-23T03:43:20.415Z,11.21
2018-06-23T03:44:20.334Z,11.30
2018-06-23T03:45:20.256Z,13.02
2018-06-23T03:46:20.190Z,15.02
2018-06-23T03:47:20.103Z,14.64
2018-06-23T03:48:20.027Z,14.83
2018-06-23T03:49:19.948Z,14.26
2018-06-23T03:50:19.870Z,13.88
2018-06-23T03:51:19.794Z,13.12
2018-06-23T03:52:19.718Z,13.12
2018-06-23T03:53:19.640Z,12.64
2018-06-23T03:54:19.564Z,12.26
2018-06-23T03:55:19.494Z,13.21
2018-06-23T03:56:19.410Z,11.31
2018-06-23T03:57:19.331Z,11.69
2018-06-23T03:58:19.254Z,12.07
2018-06-23T03:59:19.184Z,14.17
2018-06-23T04:00:19.103Z,15.03
2018-06-23T04:01:19.027Z,15.31
2018-06-23T04:02:18.948Z,13.98
2018-06-23T04:03:18.871Z,14.46
2018-06-23T04:04:18.794Z,13.60
2018-06-23T04:05:18.720Z,12.93
2018-06-23T04:06:18.641Z,14.36
2018-06-23T04:07:18.564Z,12.74
2018-06-23T04:08:18.488Z,11.60
2018-06-23T04:09:18.411Z,11.79
2018-06-23T04:10:18.334Z,11.70
2018-06-23T04:11:18.258Z,12.08
2018-06-23T04:12:18.183Z,12.65
2018-06-23T04:13:18.136Z,11.89
2018-06-23T04:14:18.029Z,13.51
2018-06-23T04:15:17.952Z,13.98
2018-06-23T04:16:17.878Z,13.79
2018-06-23T04:17:17.799Z,13.98
2018-06-23T04:18:17.723Z,13.79
2018-06-23T04:19:17.646Z,12.74
2018-06-23T04:20:17.571Z,12.27
2018-06-23T04:21:17.496Z,12.18
2018-06-23T04:22:17.417Z,12.74
2018-06-23T04:23:17.340Z,11.60
2018-06-23T04:24:17.264Z,10.94
2018-06-23T04:25:17.190Z,11.70
2018-06-23T04:26:17.112Z,11.51
2018-06-23T04:27:17.037Z,11.60
2018-06-23T04:28:16.967Z,11.70
2018-06-23T04:29:16.891Z,10.27
2018-06-23T04:30:16.808Z,9.80
2018-06-23T04:31:16.735Z,9.99
2018-06-23T04:32:16.654Z,9.80
2018-06-23T04:33:16.577Z,9.42
2018-06-23T04:34:16.502Z,9.04
2018-06-23T04:35:16.427Z,7.32
2018-06-23T04:36:16.351Z,7.61
2018-06-23T04:37:16.274Z,7.90
2018-06-23T04:38:16.197Z,8.75
2018-06-23T04:39:16.121Z,9.42
2018-06-23T04:40:16.045Z,10.94
2018-06-23T04:41:15.968Z,11.90
2018-06-23T04:42:15.893Z,13.42
2018-06-23T04:43:15.817Z,14.75
2018-06-23T04:44:15.742Z,15.80
2018-06-23T04:45:15.665Z,15.80
2018-06-23T04:46:15.591Z,16.75
2018-06-23T04:47:15.514Z,18.08
2018-06-23T04:48:15.438Z,20.08
2018-06-23T04:49:15.361Z,19.79
2018-06-23T04:50:15.286Z,20.00
2018-06-23T04:51:15.211Z,20.95
2018-06-23T04:52:15.135Z,18.76
2018-06-23T04:53:15.059Z,22.28
2018-06-23T04:54:14.982Z,24.09
2018-06-23T04:55:14.908Z,26.09
2018-06-23T04:56:14.831Z,25.61
2018-06-23T04:57:14.757Z,27.80
2018-06-23T04:58:14.679Z,30.28
2018-06-23T04:59:14.605Z,31.13
2018-06-23T05:00:14.530Z,29.99
2018-06-23T05:01:14.463Z,30.85
2018-06-23T05:02:14.379Z,30.66
2018-06-23T05:03:14.304Z,32.18
2018-06-23T05:04:14.228Z,34.66
2018-06-23T05:05:14.153Z,33.99
2018-06-23T05:06:14.078Z,34.87
2018-06-23T05:07:14.002Z,36.20
2018-06-23T05:08:13.925Z,36.94
2018-06-23T05:09:13.851Z,38.20
2018-06-23T05:10:13.777Z,37.82
2018-06-23T05:11:13.703Z,36.68
2018-06-23T05:12:13.626Z,39.53
2018-06-23T05:13:13.550Z,39.06
2018-06-23T05:14:13.475Z,40.39
2018-06-23T05:15:13.400Z,42.68
2018-06-23T05:16:13.326Z,42.49
2018-06-23T05:17:13.250Z,46.39
2018-06-23T05:18:13.175Z,44.68
2018-06-23T05:19:13.102Z,45.63
2018-06-23T05:20:13.039Z,45.84
2018-06-23T05:21:12.951Z,49.18
2018-06-23T05:22:12.875Z,50.52
2018-06-23T05:23:12.801Z,57.48
2018-06-23T05:24:12.728Z,56.14
2018-06-23T05:25:12.652Z,57.28
2018-06-23T05:26:12.577Z,57.09
2018-06-23T05:27:12.502Z,61.19
2018-06-23T05:28:12.428Z,59.09
2018-06-23T05:29:12.351Z,63.57
2018-06-23T05:30:12.277Z,67.20
2018-06-23T05:31:12.204Z,67.61
2018-06-23T05:32:12.136Z,67.04
2018-06-23T05:33:12.054Z,68.95
2018-06-23T05:34:11.984Z,63.23
2018-06-23T05:35:11.906Z,68.76
2018-06-23T05:36:11.832Z,74.67
2018-06-23T05:37:11.758Z,73.81
2018-06-23T05:38:11.683Z,70.19
2018-06-23T05:39:11.608Z,71.81
2018-06-23T05:40:11.534Z,76.01
2018-06-23T05:41:11.461Z,74.96
2018-06-23T05:42:11.386Z,74.57
2018-06-23T05:43:11.314Z,76.86
2018-06-23T05:44:11.237Z,73.52
2018-06-23T05:45:11.164Z,78.10
2018-06-23T05:46:11.090Z,86.88
2018-06-23T05:47:11.016Z,86.49
2018-06-23T05:48:10.940Z,85.45
2018-06-23T05:49:10.866Z,82.87
2018-06-23T05:50:10.797Z,78.49
2018-06-23T05:51:10.732Z,78.58
2018-06-23T05:52:10.645Z,81.01
2018-06-23T05:53:10.570Z,80.33
2018-06-23T05:54:10.497Z,83.58
2018-06-23T05:55:10.423Z,80.91
2018-06-23T05:56:10.350Z,72.03
2018-06-23T05:57:10.274Z,71.94
2018-06-23T05:58:10.201Z,83.48
2018-06-23T05:59:10.128Z,85.30
2018-06-23T06:00:10.054Z,83.48
2018-06-23T06:01:09.980Z,87.78
2018-06-23T06:02:09.904Z,87.30
2018-06-23T06:03:09.832Z,82.34
2018-06-23T06:04:09.756Z,83.87
2018-06-23T06:05:09.683Z,85.11
2018-06-23T06:06:09.609Z,86.54
2018-06-23T06:07:09.582Z,94.07
2018-06-23T06:08:09.462Z,94.84
2018-06-23T06:09:09.388Z,94.93
2018-06-23T06:10:09.314Z,93.79
2018-06-23T06:11:09.242Z,93.88
2018-06-23T06:12:09.166Z,97.61
2018-06-23T06:13:09.091Z,99.52
2018-06-23T06:14:09.020Z,99.04
2018-06-23T06:15:08.947Z,96.56
2018-06-23T06:16:08.901Z,97.37
2018-06-23T06:17:08.799Z,95.84
2018-06-23T06:18:08.727Z,99.99
2018-06-23T06:19:08.652Z,99.99
2018-06-23T06:20:08.579Z,99.99
2018-06-23T06:21:08.504Z,99.99
2018-06-23T06:22:08.431Z,99.99
2018-06-23T06:23:08.356Z,99.99
2018-06-23T06:24:08.284Z,99.99
2018-06-23T06:25:08.210Z,99.99
2018-06-23T06:26:08.137Z,99.99
2018-06-23T06:27:08.065Z,99.99
2018-06-23T06:28:07.990Z,99.99
2018-06-23T06:29:07.917Z,99.99
2018-06-23T06:30:07.844Z,99.99
2018-06-23T06:31:07.772Z,99.99
2018-06-23T06:32:07.697Z,99.99
2018-06-23T06:33:07.624Z,99.99
2018-06-23T06:34:07.550Z,99.99
2018-06-23T06:35:07.483Z,99.99
2018-06-23T06:36:07.404Z,99.99
2018-06-23T06:37:07.332Z,99.99
2018-06-23T06:38:07.257Z,99.99
2018-06-23T06:39:07.185Z,99.99
2018-06-23T06:40:07.112Z,99.99
2018-06-23T06:41:07.039Z,99.99
2018-06-23T06:42:06.966Z,99.99
2018-06-23T06:43:06.892Z,99.99
2018-06-23T06:44:06.820Z,99.99
2018-06-23T06:45:06.749Z,99.99
2018-06-23T06:46:06.677Z,99.99
2018-06-23T06:47:06.601Z,99.99
2018-06-23T06:48:06.528Z,99.99
2018-06-23T06:49:06.454Z,99.99
2018-06-23T06:50:06.382Z,99.99
2018-06-23T06:51:06.310Z,99.99
2018-06-23T06:52:06.234Z,99.99
2018-06-23T06:53:06.162Z,99.99
2018-06-23T06:54:06.090Z,99.99
2018-06-23T06:55:06.017Z,99.99
2018-06-23T06:56:05.995Z,99.99
2018-06-23T06:57:05.903Z,99.99
2018-06-23T06:58:05.796Z,99.99
2018-06-23T06:59:05.723Z,99.99
2018-06-23T07:00:05.653Z,99.99
2018-06-23T07:01:05.581Z,99.99
2018-06-23T07:02:05.503Z,99.99
2018-06-23T07:03:05.429Z,99.99
2018-06-23T07:04:05.359Z,99.99
2018-06-23T07:05:05.284Z,99.99
2018-06-23T07:06:05.210Z,99.99
2018-06-23T07:07:05.144Z,99.99
2018-06-23T07:08:05.064Z,99.99
2018-06-23T07:09:04.989Z,99.99
2018-06-23T07:10:04.916Z,99.99
2018-06-23T07:11:04.843Z,99.99
2018-06-23T07:12:04.770Z,99.99
2018-06-23T07:13:04.696Z,99.99
2018-06-23T07:14:04.623Z,99.99
2018-06-23T07:15:04.549Z,99.99
2018-06-23T07:16:04.476Z,99.99
2018-06-23T07:17:04.400Z,99.99
2018-06-23T07:18:04.327Z,99.99
2018-06-23T07:19:04.255Z,99.99
2018-06-23T07:20:04.182Z,99.99
2018-06-23T07:21:04.108Z,99.99
2018-06-23T07:22:04.035Z,99.99
2018-06-23T07:23:03.960Z,99.99
2018-06-23T07:24:03.973Z,99.99
2018-06-23T07:25:03.816Z,99.99
2018-06-23T07:26:03.741Z,99.99
2018-06-23T07:27:03.668Z,99.99
2018-06-23T07:28:03.594Z,99.99
2018-06-23T07:29:03.520Z,99.99
2018-06-23T07:30:03.448Z,99.99
2018-06-23T07:31:03.396Z,99.99
2018-06-23T07:32:03.302Z,99.99
2018-06-23T07:33:03.228Z,99.99
2018-06-23T07:34:03.155Z,99.99
2018-06-23T07:35:03.200Z,99.99
2018-06-23T07:36:03.008Z,99.99
2018-06-23T07:37:02.934Z,99.99
2018-06-23T07:38:02.861Z,99.99
2018-06-23T07:39:02.789Z,99.99
2018-06-23T07:40:02.717Z,99.99
2018-06-23T07:41:02.644Z,99.99
2018-06-23T07:42:02.569Z,99.99
2018-06-23T07:43:02.497Z,99.99
2018-06-23T07:44:02.424Z,99.99
2018-06-23T07:45:02.351Z,99.99
2018-06-23T07:46:02.277Z,99.99
2018-06-23T07:47:02.211Z,99.99
2018-06-23T07:48:02.135Z,99.99
2018-06-23T07:49:02.067Z,99.99
2018-06-23T07:50:01.992Z,99.99
2018-06-23T07:51:01.914Z,99.99
2018-06-23T07:52:01.842Z,99.99
2018-06-23T07:53:01.766Z,99.99
2018-06-23T07:54:01.695Z,99.99
2018-06-23T07:55:01.623Z,99.99
2018-06-23T07:56:01.549Z,99.99
2018-06-23T07:57:01.481Z,99.99
2018-06-23T07:58:01.404Z,99.99
2018-06-23T07:59:01.337Z,99.99
2018-06-23T08:00:01.259Z,99.99
2018-06-23T08:01:01.187Z,99.99
2018-06-23T08:02:01.114Z,99.99
2018-06-23T08:03:01.041Z,99.99
2018-06-23T08:04:00.969Z,99.99
2018-06-23T08:05:00.896Z,99.99
2018-06-23T08:06:00.828Z,99.99
2018-06-23T08:07:00.752Z,99.99
2018-06-23T08:08:00.680Z,99.99
2018-06-23T08:09:00.606Z,99.99
2018-06-23T08:10:00.535Z,99.99
2018-06-23T08:11:00.462Z,99.99
2018-06-23T08:12:00.389Z,99.99
2018-06-23T08:13:00.317Z,99.99
2018-06-23T08:14:00.245Z,99.99
2018-06-23T08:15:00.172Z,99.99
2018-06-23T08:16:00.105Z,99.99
2018-06-23T08:17:00.030Z,99.99
2018-06-23T08:17:59.955Z,99.99
2018-06-23T08:18:59.883Z,99.99
2018-06-23T08:19:59.809Z,99.99
2018-06-23T08:20:59.737Z,99.99
2018-06-23T08:21:59.665Z,99.99
2018-06-23T08:22:59.592Z,99.99
2018-06-23T08:23:59.522Z,99.99
2018-06-23T08:24:59.460Z,99.99
2018-06-23T08:25:59.379Z,84.16
2018-06-23T08:26:59.319Z,83.49
2018-06-23T08:27:59.236Z,82.43
2018-06-23T08:28:59.164Z,83.39
2018-06-23T08:29:59.089Z,79.43
2018-06-23T08:30:59.017Z,79.43
2018-06-23T08:31:59.006Z,74.84
2018-06-23T08:32:58.871Z,76.94
2018-06-23T08:33:58.801Z,76.56
2018-06-23T08:34:58.728Z,76.40
2018-06-23T08:35:58.658Z,77.94
2018-06-23T08:36:58.585Z,73.82
2018-06-23T08:37:58.513Z,72.96
2018-06-23T08:38:58.441Z,79.51
2018-06-23T08:39:58.370Z,83.05
2018-06-23T08:40:58.298Z,83.00
2018-06-23T08:41:58.227Z,77.82
2018-06-23T08:42:58.156Z,79.07
2018-06-23T08:43:58.083Z,81.71
2018-06-23T08:44:58.013Z,84.01
2018-06-23T08:45:57.941Z,84.45
2018-06-23T08:46:57.869Z,84.64
2018-06-23T08:47:57.798Z,88.23
2018-06-23T08:48:57.729Z,89.09
2018-06-23T08:49:57.655Z,90.05
2018-06-23T08:50:57.583Z,92.73
2018-06-23T08:51:57.513Z,89.38
2018-06-23T08:52:57.440Z,86.90
2018-06-23T08:53:57.370Z,87.08
2018-06-23T08:54:57.298Z,84.02
2018-06-23T08:55:57.227Z,86.90
2018-06-23T08:56:57.207Z,84.59
2018-06-23T08:57:57.082Z,82.73
2018-06-23T08:58:57.011Z,81.48
2018-06-23T08:59:56.939Z,81.77
2018-06-23T09:00:56.865Z,76.60
2018-06-23T09:01:56.795Z,76.31
2018-06-23T09:02:56.726Z,75.93
2018-06-23T09:03:56.655Z,75.07
2018-06-23T09:04:56.580Z,74.97
2018-06-23T09:05:56.508Z,73.86
2018-06-23T09:06:56.436Z,72.42
2018-06-23T09:07:56.365Z,69.93
2018-06-23T09:08:56.295Z,68.78
2018-06-23T09:09:56.221Z,69.39
2018-06-23T09:10:56.149Z,69.29
2018-06-23T09:11:56.082Z,67.38
2018-06-23T09:12:56.006Z,67.28
2018-06-23T09:13:55.935Z,68.05
2018-06-23T09:14:55.918Z,67.09
2018-06-23T09:15:55.792Z,67.09
2018-06-23T09:16:55.723Z,66.64
2018-06-23T09:17:55.649Z,63.67
2018-06-23T09:18:55.577Z,64.05
2018-06-23T09:19:55.511Z,65.78
2018-06-23T09:20:55.435Z,68.18
2018-06-23T09:21:55.364Z,64.82
2018-06-23T09:22:55.294Z,65.97
2018-06-23T09:23:55.222Z,65.33
2018-06-23T09:24:55.152Z,65.62
2018-06-23T09:25:55.128Z,63.51
2018-06-23T09:26:55.010Z,63.51
2018-06-23T09:27:54.939Z,63.86
2018-06-23T09:28:54.868Z,65.88
2018-06-23T09:29:54.796Z,67.69
2018-06-23T09:30:54.726Z,68.46
2018-06-23T09:31:54.660Z,69.10
2018-06-23T09:32:54.585Z,68.43
2018-06-23T09:33:54.515Z,69.45
2018-06-23T09:34:54.444Z,70.70
2018-06-23T09:35:54.374Z,71.78
2018-06-23T09:36:54.305Z,71.59
2018-06-23T09:37:54.231Z,69.96
2018-06-23T09:38:54.160Z,68.91
2018-06-23T09:39:54.089Z,69.07
2018-06-23T09:40:54.019Z,71.31
2018-06-23T09:41:53.948Z,69.10
2018-06-23T09:42:53.879Z,70.15
2018-06-23T09:43:53.806Z,69.01
2018-06-23T09:44:53.735Z,72.27
2018-06-23T09:45:53.691Z,71.31
2018-06-23T09:46:53.594Z,69.10
2018-06-23T09:47:53.522Z,68.81
2018-06-23T09:48:53.487Z,68.91
2018-06-23T09:49:53.381Z,69.48
2018-06-23T09:50:53.309Z,67.50
2018-06-23T09:51:53.239Z,65.88
2018-06-23T09:52:53.167Z,65.59
2018-06-23T09:53:53.096Z,64.76
2018-06-23T09:54:53.026Z,63.03
2018-06-23T09:56:52.884Z,62.45
2018-06-23T09:57:52.813Z,63.00
2018-06-23T09:58:52.741Z,63.96
2018-06-23T09:59:52.671Z,65.23
2018-06-23T10:00:52.601Z,68.21
2018-06-23T10:01:52.531Z,68.59
2018-06-23T10:02:52.460Z,67.06
2018-06-23T10:03:52.392Z,67.92
2018-06-23T10:04:52.319Z,65.72
2018-06-23T10:05:52.249Z,63.99
2018-06-23T10:06:52.179Z,63.38
2018-06-23T10:07:52.111Z,64.63
2018-06-23T10:08:52.039Z,65.97
2018-06-23T10:09:51.967Z,66.55
2018-06-23T10:10:51.897Z,64.72
2018-06-23T10:11:51.828Z,65.26
2018-06-23T10:12:51.756Z,66.45
2018-06-23T10:13:51.688Z,66.06
2018-06-23T10:14:51.616Z,65.97
2018-06-23T10:15:51.547Z,66.00
2018-06-23T10:16:51.475Z,64.79
2018-06-23T10:17:51.406Z,63.54
2018-06-23T10:18:51.334Z,62.71
2018-06-23T10:19:51.264Z,61.84
2018-06-23T10:20:51.193Z,62.23
2018-06-23T10:21:51.124Z,62.04
2018-06-23T10:22:51.054Z,61.05
2018-06-23T10:23:50.984Z,61.75
2018-06-23T10:24:50.912Z,63.09
2018-06-23T10:25:50.843Z,61.55
2018-06-23T10:26:50.772Z,62.99
2018-06-23T10:27:50.704Z,62.04
2018-06-23T10:28:50.632Z,62.68
2018-06-23T10:29:50.659Z,63.83
2018-06-23T10:30:50.500Z,64.50
2018-06-23T10:31:50.425Z,63.92
2018-06-23T10:32:50.354Z,64.34
2018-06-23T10:33:50.285Z,65.30
2018-06-23T10:34:50.215Z,65.72
2018-06-23T10:35:50.146Z,61.30
2018-06-23T10:36:50.078Z,60.21
2018-06-23T10:37:50.005Z,60.47
2018-06-23T10:38:50.085Z,61.62
2018-06-23T10:39:49.868Z,61.69
2018-06-23T10:40:49.799Z,62.87
2018-06-23T10:41:49.730Z,62.10
2018-06-23T10:42:49.658Z,63.57
2018-06-23T10:43:49.588Z,62.32
2018-06-23T10:44:49.519Z,60.91
2018-06-23T10:45:49.450Z,61.27
2018-06-23T10:46:49.383Z,60.60
2018-06-23T10:47:49.310Z,61.08
2018-06-23T10:48:49.241Z,62.35
2018-06-23T10:49:49.171Z,61.58
2018-06-23T10:50:49.105Z,60.40
2018-06-23T10:51:49.034Z,59.92
2018-06-23T10:52:48.963Z,60.75
2018-06-23T10:53:48.898Z,62.58
2018-06-23T10:54:48.826Z,62.77
2018-06-23T10:55:48.756Z,63.06
2018-06-23T10:56:48.686Z,63.48
2018-06-23T10:57:48.675Z,65.20
2018-06-23T10:58:48.547Z,64.02
2018-06-23T10:59:48.479Z,63.83
2018-06-23T11:00:48.408Z,64.69
2018-06-23T11:01:48.339Z,64.92
2018-06-23T11:02:48.270Z,63.54
2018-06-23T11:03:48.200Z,63.64
2018-06-23T11:04:48.212Z,63.64
2018-06-23T11:05:48.061Z,64.40
2018-06-23T11:06:47.992Z,65.65
2018-06-23T11:07:47.930Z,65.84
2018-06-23T11:08:47.852Z,64.50
2018-06-23T11:09:47.784Z,64.50
2018-06-23T11:10:47.715Z,64.59
2018-06-23T11:11:47.645Z,64.22
2018-06-23T11:12:47.575Z,63.25
2018-06-23T11:13:47.505Z,64.15
2018-06-23T11:14:47.436Z,62.42
2018-06-23T11:15:47.366Z,62.81
2018-06-23T11:16:47.302Z,61.65
2018-06-23T11:17:47.228Z,61.27
2018-06-23T11:18:47.162Z,62.52
2018-06-23T11:19:47.091Z,62.07
2018-06-23T11:20:47.020Z,60.91
2018-06-23T11:21:46.954Z,60.85
2018-06-23T11:22:46.882Z,61.65
2018-06-23T11:23:46.815Z,60.69
2018-06-23T11:24:46.747Z,60.39
2018-06-23T11:25:46.679Z,59.82
2018-06-23T11:26:46.611Z,58.31
2018-06-23T11:27:46.544Z,57.22
2018-06-23T11:28:46.475Z,58.57
2018-06-23T11:29:46.410Z,60.01
2018-06-23T11:30:46.343Z,57.77
2018-06-23T11:31:46.275Z,57.87
2018-06-23T11:32:46.208Z,58.15
2018-06-23T11:33:46.141Z,59.41
2018-06-23T11:34:46.099Z,58.73
2018-06-23T11:35:46.006Z,58.45
2018-06-23T11:36:45.937Z,57.93
2018-06-23T11:37:45.870Z,58.61
2018-06-23T11:38:45.805Z,59.16
2018-06-23T11:39:45.736Z,60.31
2018-06-23T11:40:45.668Z,59.83
2018-06-23T11:41:45.599Z,58.96
2018-06-23T11:42:45.533Z,58.76
2018-06-23T11:43:45.463Z,57.37
2018-06-23T11:44:45.394Z,55.00
2018-06-23T11:45:45.326Z,55.09
2018-06-23T11:46:45.260Z,55.31
2018-06-23T11:47:45.193Z,54.57
2018-06-23T11:48:45.124Z,52.33
2018-06-23T11:49:45.061Z,54.42
2018-06-23T11:50:45.005Z,53.72
2018-06-23T11:51:44.926Z,53.78
2018-06-23T11:52:44.858Z,55.13
2018-06-23T11:53:44.793Z,55.49
2018-06-23T11:54:44.726Z,55.49
2018-06-23T11:55:44.661Z,55.37
2018-06-23T11:56:44.606Z,56.71
2018-06-23T11:57:44.527Z,56.52
2018-06-23T11:58:44.458Z,56.52
2018-06-23T11:59:44.392Z,56.81
2018-06-23T12:00:44.325Z,56.71
2018-06-23T12:01:44.318Z,57.00
2018-06-23T12:02:44.191Z,57.58
2018-06-23T12:03:44.124Z,56.45
2018-06-23T12:04:44.058Z,54.42
2018-06-23T12:05:43.988Z,51.77
2018-06-23T12:06:43.921Z,52.23
2018-06-23T12:07:43.854Z,52.87
2018-06-23T12:08:43.786Z,52.87
2018-06-23T12:09:43.720Z,53.05
2018-06-23T12:10:43.655Z,53.59
2018-06-23T12:11:43.589Z,52.78
2018-06-23T12:12:43.522Z,53.45
2018-06-23T12:13:43.455Z,53.45
2018-06-23T12:14:43.391Z,55.19
2018-06-23T12:15:43.326Z,54.22
2018-06-23T12:16:43.257Z,52.28
2018-06-23T12:17:43.192Z,51.34
2018-06-23T12:18:43.126Z,48.42
2018-06-23T12:19:43.061Z,47.85
2018-06-23T12:20:43.002Z,48.52
2018-06-23T12:21:42.932Z,48.97
2018-06-23T12:22:42.868Z,50.21
2018-06-23T12:23:42.804Z,50.32
2018-06-23T12:24:42.739Z,49.10
2018-06-23T12:25:42.676Z,49.75
2018-06-23T12:26:42.612Z,49.07
2018-06-23T12:27:42.549Z,50.78
2018-06-23T12:28:42.485Z,52.59
2018-06-23T12:29:42.422Z,52.11
2018-06-23T12:30:42.360Z,52.87
2018-06-23T12:31:42.295Z,53.84
2018-06-23T12:32:42.231Z,54.13
2018-06-23T12:33:42.166Z,53.62
2018-06-23T12:34:42.103Z,56.51
2018-06-23T12:35:42.038Z,54.87
2018-06-23T12:36:41.972Z,54.27
2018-06-23T12:37:41.908Z,55.23
2018-06-23T12:38:41.843Z,54.56
2018-06-23T12:39:41.779Z,54.56
2018-06-23T12:40:41.712Z,54.75
2018-06-23T12:41:41.799Z,55.40
2018-06-23T12:42:41.586Z,56.20
2018-06-23T12:43:41.517Z,56.29
2018-06-23T12:44:41.448Z,55.62
2018-06-23T12:45:41.383Z,56.67
2018-06-23T12:46:41.317Z,55.83
2018-06-23T12:47:41.251Z,55.35
2018-06-23T12:48:41.184Z,54.64
2018-06-23T12:49:41.120Z,53.27
2018-06-23T12:50:41.052Z,54.08
2018-06-23T12:51:40.986Z,56.03
2018-06-23T12:52:40.918Z,56.05
2018-06-23T12:53:41.053Z,56.12